sensor_id;sensor_type;location;lat;lon;timestamp;P1;durP1;ratioP1;P2;durP2;ratioP2
21786;SDS011;11055;50.870;4.316;2023-10-13T00:01:53;18.83;;;15.67;;
21786;SDS011;11055;50.870;4.316;2023-10-13T00:04:19;19.33;;;14.75;;
21786;SDS011;11055;50.870;4.316;2023-10-13T00:06:50;20.80;;;15.30;;
21786;SDS011;11055;50.870;4.316;2023-10-13T00:09:21;20.95;;;14.98;;
21786;SDS011;11055;50.870;4.316;2023-10-13T00:11:51;23.95;;;16.60;;
21786;SDS011;11055;50.870;4.316;2023-10-13T00:14:17;25.65;;;17.88;;
21786;SDS011;11055;50.870;4.316;2023-10-13T00:16:45;21.50;;;15.40;;
21786;SDS011;11055;50.870;4.316;2023-10-13T00:19:27;22.75;;;17.50;;
21786;SDS011;11055;50.870;4.316;2023-10-13T00:21:53;22.85;;;17.83;;
21786;SDS011;11055;50.870;4.316;2023-10-13T00:24:21;26.23;;;18.70;;
21786;SDS011;11055;50.870;4.316;2023-10-13T00:26:54;30.15;;;18.92;;
21786;SDS011;11055;50.870;4.316;2023-10-13T00:29:20;26.13;;;18.63;;
21786;SDS011;11055;50.870;4.316;2023-10-13T00:31:54;26.52;;;17.80;;
21786;SDS011;11055;50.870;4.316;2023-10-13T00:34:19;26.13;;;18.52;;
21786;SDS011;11055;50.870;4.316;2023-10-13T00:36:52;27.30;;;18.58;;
21786;SDS011;11055;50.870;4.316;2023-10-13T00:39:37;26.92;;;19.38;;
21786;SDS011;11055;50.870;4.316;2023-10-13T00:42:09;27.98;;;19.08;;
21786;SDS011;11055;50.870;4.316;2023-10-13T00:44:43;27.42;;;19.25;;
21786;SDS011;11055;50.870;4.316;2023-10-13T00:47:13;26.25;;;18.63;;
21786;SDS011;11055;50.870;4.316;2023-10-13T00:49:50;23.67;;;19.15;;
21786;SDS011;11055;50.870;4.316;2023-10-13T00:52:16;25.70;;;19.10;;
21786;SDS011;11055;50.870;4.316;2023-10-13T00:54:44;25.02;;;19.02;;
21786;SDS011;11055;50.870;4.316;2023-10-13T00:57:14;26.85;;;18.42;;
21786;SDS011;11055;50.870;4.316;2023-10-13T00:59:55;27.77;;;19.00;;
21786;SDS011;11055;50.870;4.316;2023-10-13T01:02:22;26.52;;;18.80;;
21786;SDS011;11055;50.870;4.316;2023-10-13T01:05:03;24.38;;;18.20;;
21786;SDS011;11055;50.870;4.316;2023-10-13T01:07:29;31.70;;;19.60;;
21786;SDS011;11055;50.870;4.316;2023-10-13T01:09:55;27.13;;;19.42;;
21786;SDS011;11055;50.870;4.316;2023-10-13T01:12:21;28.92;;;20.20;;
21786;SDS011;11055;50.870;4.316;2023-10-13T01:14:50;31.25;;;18.83;;
21786;SDS011;11055;50.870;4.316;2023-10-13T01:17:16;26.20;;;20.08;;
21786;SDS011;11055;50.870;4.316;2023-10-13T01:19:41;28.80;;;19.80;;
21786;SDS011;11055;50.870;4.316;2023-10-13T01:22:07;35.65;;;21.23;;
21786;SDS011;11055;50.870;4.316;2023-10-13T01:24:33;30.88;;;21.10;;
21786;SDS011;11055;50.870;4.316;2023-10-13T01:27:00;29.58;;;20.58;;
21786;SDS011;11055;50.870;4.316;2023-10-13T01:29:42;31.05;;;20.40;;
21786;SDS011;11055;50.870;4.316;2023-10-13T01:32:14;29.35;;;21.23;;
21786;SDS011;11055;50.870;4.316;2023-10-13T01:34:42;28.15;;;20.30;;
21786;SDS011;11055;50.870;4.316;2023-10-13T01:37:11;29.40;;;21.17;;
21786;SDS011;11055;50.870;4.316;2023-10-13T01:39:37;27.80;;;19.92;;
21786;SDS011;11055;50.870;4.316;2023-10-13T01:42:02;31.38;;;20.73;;
21786;SDS011;11055;50.870;4.316;2023-10-13T01:44:29;30.83;;;20.58;;
21786;SDS011;11055;50.870;4.316;2023-10-13T01:46:58;31.63;;;21.67;;
21786;SDS011;11055;50.870;4.316;2023-10-13T01:49:27;30.27;;;21.08;;
21786;SDS011;11055;50.870;4.316;2023-10-13T01:51:53;27.65;;;21.10;;
21786;SDS011;11055;50.870;4.316;2023-10-13T01:54:19;30.65;;;21.33;;
21786;SDS011;11055;50.870;4.316;2023-10-13T01:56:46;30.35;;;21.23;;
21786;SDS011;11055;50.870;4.316;2023-10-13T01:59:14;31.13;;;20.45;;
21786;SDS011;11055;50.870;4.316;2023-10-13T02:01:43;32.05;;;20.48;;
21786;SDS011;11055;50.870;4.316;2023-10-13T02:04:08;29.83;;;21.17;;
21786;SDS011;11055;50.870;4.316;2023-10-13T02:06:35;26.30;;;19.95;;
21786;SDS011;11055;50.870;4.316;2023-10-13T02:09:02;29.40;;;20.38;;
21786;SDS011;11055;50.870;4.316;2023-10-13T02:11:41;26.08;;;18.98;;
21786;SDS011;11055;50.870;4.316;2023-10-13T02:14:10;28.45;;;18.73;;
21786;SDS011;11055;50.870;4.316;2023-10-13T02:16:37;27.63;;;18.52;;
21786;SDS011;11055;50.870;4.316;2023-10-13T02:19:04;30.00;;;18.05;;
21786;SDS011;11055;50.870;4.316;2023-10-13T02:21:32;25.60;;;17.55;;
21786;SDS011;11055;50.870;4.316;2023-10-13T02:24:04;26.48;;;16.70;;
21786;SDS011;11055;50.870;4.316;2023-10-13T02:26:37;23.70;;;16.52;;
21786;SDS011;11055;50.870;4.316;2023-10-13T02:29:04;20.40;;;16.05;;
21786;SDS011;11055;50.870;4.316;2023-10-13T02:31:34;21.98;;;16.15;;
21786;SDS011;11055;50.870;4.316;2023-10-13T02:34:01;29.27;;;15.98;;
21786;SDS011;11055;50.870;4.316;2023-10-13T02:36:31;20.83;;;15.30;;
21786;SDS011;11055;50.870;4.316;2023-10-13T02:39:12;24.63;;;16.60;;
21786;SDS011;11055;50.870;4.316;2023-10-13T02:41:39;20.83;;;15.10;;
21786;SDS011;11055;50.870;4.316;2023-10-13T02:44:06;22.98;;;15.00;;
21786;SDS011;11055;50.870;4.316;2023-10-13T02:46:41;24.35;;;16.13;;
21786;SDS011;11055;50.870;4.316;2023-10-13T02:49:08;23.65;;;14.30;;
21786;SDS011;11055;50.870;4.316;2023-10-13T02:51:36;25.15;;;15.38;;
21786;SDS011;11055;50.870;4.316;2023-10-13T02:54:05;18.35;;;13.18;;
21786;SDS011;11055;50.870;4.316;2023-10-13T02:56:37;18.67;;;13.30;;
21786;SDS011;11055;50.870;4.316;2023-10-13T02:59:25;27.25;;;14.18;;
21786;SDS011;11055;50.870;4.316;2023-10-13T03:02:11;20.27;;;14.45;;
21786;SDS011;11055;50.870;4.316;2023-10-13T03:04:52;23.33;;;13.95;;
21786;SDS011;11055;50.870;4.316;2023-10-13T03:07:33;23.73;;;13.90;;
21786;SDS011;11055;50.870;4.316;2023-10-13T03:10:01;23.15;;;13.63;;
21786;SDS011;11055;50.870;4.316;2023-10-13T03:12:34;22.38;;;13.63;;
21786;SDS011;11055;50.870;4.316;2023-10-13T03:15:01;23.58;;;14.00;;
21786;SDS011;11055;50.870;4.316;2023-10-13T03:17:36;18.52;;;13.70;;
21786;SDS011;11055;50.870;4.316;2023-10-13T03:20:06;22.50;;;14.18;;
21786;SDS011;11055;50.870;4.316;2023-10-13T03:22:36;19.45;;;13.32;;
21786;SDS011;11055;50.870;4.316;2023-10-13T03:25:02;21.58;;;13.43;;
21786;SDS011;11055;50.870;4.316;2023-10-13T03:27:32;19.25;;;13.45;;
21786;SDS011;11055;50.870;4.316;2023-10-13T03:30:06;21.33;;;12.98;;
21786;SDS011;11055;50.870;4.316;2023-10-13T03:32:41;21.17;;;13.52;;
21786;SDS011;11055;50.870;4.316;2023-10-13T03:35:20;19.98;;;13.05;;
21786;SDS011;11055;50.870;4.316;2023-10-13T03:37:49;19.95;;;12.93;;
21786;SDS011;11055;50.870;4.316;2023-10-13T03:40:19;21.65;;;13.00;;
21786;SDS011;11055;50.870;4.316;2023-10-13T03:42:45;24.00;;;13.35;;
21786;SDS011;11055;50.870;4.316;2023-10-13T03:48:09;22.73;;;12.93;;
21786;SDS011;11055;50.870;4.316;2023-10-13T03:53:31;20.65;;;13.68;;
21786;SDS011;11055;50.870;4.316;2023-10-13T03:56:01;23.85;;;13.70;;
21786;SDS011;11055;50.870;4.316;2023-10-13T03:58:37;22.13;;;13.70;;
21786;SDS011;11055;50.870;4.316;2023-10-13T04:01:04;20.27;;;13.32;;
21786;SDS011;11055;50.870;4.316;2023-10-13T04:03:34;28.75;;;13.70;;
21786;SDS011;11055;50.870;4.316;2023-10-13T04:06:01;22.88;;;13.10;;
21786;SDS011;11055;50.870;4.316;2023-10-13T04:08:41;24.15;;;12.98;;
21786;SDS011;11055;50.870;4.316;2023-10-13T04:11:35;24.33;;;13.00;;
21786;SDS011;11055;50.870;4.316;2023-10-13T04:14:20;24.17;;;13.20;;
21786;SDS011;11055;50.870;4.316;2023-10-13T04:17:08;23.42;;;12.77;;
21786;SDS011;11055;50.870;4.316;2023-10-13T04:22:27;25.13;;;13.23;;
21786;SDS011;11055;50.870;4.316;2023-10-13T04:25:14;20.23;;;11.55;;
21786;SDS011;11055;50.870;4.316;2023-10-13T04:28:08;19.75;;;11.05;;
21786;SDS011;11055;50.870;4.316;2023-10-13T04:30:42;21.25;;;11.45;;
21786;SDS011;11055;50.870;4.316;2023-10-13T04:33:18;21.27;;;11.27;;
21786;SDS011;11055;50.870;4.316;2023-10-13T04:41:43;22.80;;;10.25;;
21786;SDS011;11055;50.870;4.316;2023-10-13T04:44:11;21.20;;;10.30;;
21786;SDS011;11055;50.870;4.316;2023-10-13T04:46:58;16.33;;;9.63;;
21786;SDS011;11055;50.870;4.316;2023-10-13T04:49:25;15.38;;;9.15;;
21786;SDS011;11055;50.870;4.316;2023-10-13T04:52:04;20.90;;;9.25;;
21786;SDS011;11055;50.870;4.316;2023-10-13T04:54:35;18.42;;;9.43;;
21786;SDS011;11055;50.870;4.316;2023-10-13T04:57:14;16.80;;;9.40;;
21786;SDS011;11055;50.870;4.316;2023-10-13T04:59:56;16.75;;;8.85;;
21786;SDS011;11055;50.870;4.316;2023-10-13T05:05:20;21.17;;;9.77;;
21786;SDS011;11055;50.870;4.316;2023-10-13T05:08:05;16.60;;;9.80;;
21786;SDS011;11055;50.870;4.316;2023-10-13T05:10:49;24.83;;;11.25;;
21786;SDS011;11055;50.870;4.316;2023-10-13T05:13:33;22.05;;;11.32;;
21786;SDS011;11055;50.870;4.316;2023-10-13T05:16:17;23.25;;;10.85;;
21786;SDS011;11055;50.870;4.316;2023-10-13T05:19:01;19.73;;;10.93;;
21786;SDS011;11055;50.870;4.316;2023-10-13T05:21:45;18.83;;;10.45;;
21786;SDS011;11055;50.870;4.316;2023-10-13T05:24:29;23.40;;;12.38;;
21786;SDS011;11055;50.870;4.316;2023-10-13T05:27:13;19.25;;;10.77;;
21786;SDS011;11055;50.870;4.316;2023-10-13T05:29:58;23.10;;;9.85;;
21786;SDS011;11055;50.870;4.316;2023-10-13T05:32:42;23.20;;;9.77;;
21786;SDS011;11055;50.870;4.316;2023-10-13T05:35:26;18.13;;;9.25;;
21786;SDS011;11055;50.870;4.316;2023-10-13T05:38:10;21.10;;;9.55;;
21786;SDS011;11055;50.870;4.316;2023-10-13T05:41:02;22.75;;;9.40;;
21786;SDS011;11055;50.870;4.316;2023-10-13T05:43:48;24.13;;;10.13;;
21786;SDS011;11055;50.870;4.316;2023-10-13T05:46:32;21.65;;;7.88;;
21786;SDS011;11055;50.870;4.316;2023-10-13T05:49:05;18.45;;;7.60;;
21786;SDS011;11055;50.870;4.316;2023-10-13T05:51:37;16.10;;;7.13;;
21786;SDS011;11055;50.870;4.316;2023-10-13T05:54:06;17.17;;;8.73;;
21786;SDS011;11055;50.870;4.316;2023-10-13T05:56:59;19.55;;;8.23;;
21786;SDS011;11055;50.870;4.316;2023-10-13T05:59:42;16.67;;;7.20;;
21786;SDS011;11055;50.870;4.316;2023-10-13T06:02:27;17.20;;;7.00;;
21786;SDS011;11055;50.870;4.316;2023-10-13T06:05:12;19.13;;;9.50;;
21786;SDS011;11055;50.870;4.316;2023-10-13T06:07:57;16.73;;;7.15;;
21786;SDS011;11055;50.870;4.316;2023-10-13T06:10:42;17.17;;;9.45;;
21786;SDS011;11055;50.870;4.316;2023-10-13T06:13:27;15.15;;;6.75;;
21786;SDS011;11055;50.870;4.316;2023-10-13T06:16:13;16.45;;;6.57;;
21786;SDS011;11055;50.870;4.316;2023-10-13T06:18:59;16.08;;;7.05;;
21786;SDS011;11055;50.870;4.316;2023-10-13T06:21:45;22.48;;;6.90;;
21786;SDS011;11055;50.870;4.316;2023-10-13T06:24:30;19.65;;;8.27;;
21786;SDS011;11055;50.870;4.316;2023-10-13T06:27:16;21.23;;;9.38;;
21786;SDS011;11055;50.870;4.316;2023-10-13T06:30:01;17.60;;;6.90;;
21786;SDS011;11055;50.870;4.316;2023-10-13T06:32:29;18.10;;;8.40;;
21786;SDS011;11055;50.870;4.316;2023-10-13T06:34:56;18.13;;;7.68;;
21786;SDS011;11055;50.870;4.316;2023-10-13T06:37:32;18.17;;;7.03;;
21786;SDS011;11055;50.870;4.316;2023-10-13T06:40:03;14.43;;;7.38;;
21786;SDS011;11055;50.870;4.316;2023-10-13T06:42:58;15.18;;;6.40;;
21786;SDS011;11055;50.870;4.316;2023-10-13T06:45:38;13.43;;;7.15;;
21786;SDS011;11055;50.870;4.316;2023-10-13T06:48:04;14.95;;;6.72;;
21786;SDS011;11055;50.870;4.316;2023-10-13T06:50:30;14.38;;;6.47;;
21786;SDS011;11055;50.870;4.316;2023-10-13T06:53:04;18.38;;;6.68;;
21786;SDS011;11055;50.870;4.316;2023-10-13T06:55:30;20.38;;;7.00;;
21786;SDS011;11055;50.870;4.316;2023-10-13T06:58:00;15.23;;;6.63;;
21786;SDS011;11055;50.870;4.316;2023-10-13T07:00:27;14.75;;;6.88;;
21786;SDS011;11055;50.870;4.316;2023-10-13T07:02:59;17.95;;;6.80;;
21786;SDS011;11055;50.870;4.316;2023-10-13T07:05:38;14.63;;;6.88;;
21786;SDS011;11055;50.870;4.316;2023-10-13T07:08:06;13.60;;;6.53;;
21786;SDS011;11055;50.870;4.316;2023-10-13T07:10:34;19.75;;;6.80;;
21786;SDS011;11055;50.870;4.316;2023-10-13T07:13:13;11.20;;;6.72;;
21786;SDS011;11055;50.870;4.316;2023-10-13T07:15:42;18.33;;;6.53;;
21786;SDS011;11055;50.870;4.316;2023-10-13T07:18:12;13.30;;;6.20;;
21786;SDS011;11055;50.870;4.316;2023-10-13T07:20:39;17.17;;;6.07;;
21786;SDS011;11055;50.870;4.316;2023-10-13T07:23:14;16.85;;;7.07;;
21786;SDS011;11055;50.870;4.316;2023-10-13T07:25:55;13.83;;;7.03;;
21786;SDS011;11055;50.870;4.316;2023-10-13T07:28:27;19.50;;;6.63;;
21786;SDS011;11055;50.870;4.316;2023-10-13T07:30:55;18.52;;;6.45;;
21786;SDS011;11055;50.870;4.316;2023-10-13T07:33:24;10.30;;;6.07;;
21786;SDS011;11055;50.870;4.316;2023-10-13T07:36:04;16.05;;;6.75;;
21786;SDS011;11055;50.870;4.316;2023-10-13T07:38:56;14.90;;;6.65;;
21786;SDS011;11055;50.870;4.316;2023-10-13T07:41:40;15.88;;;7.45;;
21786;SDS011;11055;50.870;4.316;2023-10-13T07:44:07;13.63;;;6.85;;
21786;SDS011;11055;50.870;4.316;2023-10-13T07:46:33;16.60;;;8.23;;
21786;SDS011;11055;50.870;4.316;2023-10-13T07:49:00;17.42;;;7.47;;
21786;SDS011;11055;50.870;4.316;2023-10-13T07:51:36;17.60;;;7.82;;
21786;SDS011;11055;50.870;4.316;2023-10-13T07:54:14;18.60;;;8.38;;
21786;SDS011;11055;50.870;4.316;2023-10-13T07:56:47;19.60;;;7.80;;
21786;SDS011;11055;50.870;4.316;2023-10-13T07:59:13;54.30;;;38.25;;
21786;SDS011;11055;50.870;4.316;2023-10-13T08:01:41;29.38;;;19.65;;
21786;SDS011;11055;50.870;4.316;2023-10-13T08:04:10;18.58;;;12.40;;
21786;SDS011;11055;50.870;4.316;2023-10-13T08:06:39;14.80;;;7.13;;
21786;SDS011;11055;50.870;4.316;2023-10-13T08:09:06;17.38;;;9.00;;
21786;SDS011;11055;50.870;4.316;2023-10-13T08:11:33;12.75;;;7.35;;
21786;SDS011;11055;50.870;4.316;2023-10-13T08:14:00;15.02;;;6.30;;
21786;SDS011;11055;50.870;4.316;2023-10-13T08:16:41;13.35;;;6.47;;
21786;SDS011;11055;50.870;4.316;2023-10-13T08:19:11;14.73;;;7.13;;
21786;SDS011;11055;50.870;4.316;2023-10-13T08:21:43;18.13;;;7.60;;
21786;SDS011;11055;50.870;4.316;2023-10-13T08:24:19;15.95;;;6.47;;
21786;SDS011;11055;50.870;4.316;2023-10-13T08:27:11;17.70;;;6.82;;
21786;SDS011;11055;50.870;4.316;2023-10-13T08:29:44;12.87;;;6.17;;
21786;SDS011;11055;50.870;4.316;2023-10-13T08:32:26;13.63;;;6.50;;
21786;SDS011;11055;50.870;4.316;2023-10-13T08:34:56;14.25;;;7.03;;
21786;SDS011;11055;50.870;4.316;2023-10-13T08:37:23;14.17;;;7.47;;
21786;SDS011;11055;50.870;4.316;2023-10-13T08:39:50;14.85;;;6.93;;
21786;SDS011;11055;50.870;4.316;2023-10-13T08:42:44;13.07;;;6.72;;
21786;SDS011;11055;50.870;4.316;2023-10-13T08:45:16;15.05;;;6.43;;
21786;SDS011;11055;50.870;4.316;2023-10-13T08:47:52;16.20;;;6.80;;
21786;SDS011;11055;50.870;4.316;2023-10-13T08:50:32;17.80;;;7.30;;
21786;SDS011;11055;50.870;4.316;2023-10-13T08:53:15;12.88;;;5.63;;
21786;SDS011;11055;50.870;4.316;2023-10-13T08:56:12;15.13;;;6.00;;
21786;SDS011;11055;50.870;4.316;2023-10-13T08:58:56;12.00;;;6.60;;
21786;SDS011;11055;50.870;4.316;2023-10-13T09:01:31;13.18;;;6.32;;
21786;SDS011;11055;50.870;4.316;2023-10-13T09:03:59;17.42;;;7.30;;
21786;SDS011;11055;50.870;4.316;2023-10-13T09:06:45;11.95;;;5.93;;
21786;SDS011;11055;50.870;4.316;2023-10-13T09:12:12;11.95;;;6.50;;
21786;SDS011;11055;50.870;4.316;2023-10-13T09:14:39;14.73;;;6.80;;
21786;SDS011;11055;50.870;4.316;2023-10-13T09:17:10;17.13;;;7.78;;
21786;SDS011;11055;50.870;4.316;2023-10-13T09:19:46;13.07;;;6.70;;
21786;SDS011;11055;50.870;4.316;2023-10-13T09:22:20;13.83;;;7.17;;
21786;SDS011;11055;50.870;4.316;2023-10-13T09:24:55;12.77;;;6.18;;
21786;SDS011;11055;50.870;4.316;2023-10-13T09:27:24;11.98;;;6.40;;
21786;SDS011;11055;50.870;4.316;2023-10-13T09:29:57;13.60;;;6.90;;
21786;SDS011;11055;50.870;4.316;2023-10-13T09:32:43;15.02;;;7.22;;
21786;SDS011;11055;50.870;4.316;2023-10-13T09:35:20;12.15;;;6.95;;
21786;SDS011;11055;50.870;4.316;2023-10-13T09:37:52;16.23;;;7.65;;
21786;SDS011;11055;50.870;4.316;2023-10-13T09:40:21;18.25;;;7.57;;
21786;SDS011;11055;50.870;4.316;2023-10-13T09:42:52;11.13;;;6.25;;
21786;SDS011;11055;50.870;4.316;2023-10-13T09:45:22;16.27;;;7.35;;
21786;SDS011;11055;50.870;4.316;2023-10-13T09:48:02;13.90;;;6.97;;
21786;SDS011;11055;50.870;4.316;2023-10-13T09:50:40;14.07;;;7.13;;
21786;SDS011;11055;50.870;4.316;2023-10-13T09:53:10;13.95;;;6.78;;
21786;SDS011;11055;50.870;4.316;2023-10-13T09:55:42;12.18;;;6.80;;
21786;SDS011;11055;50.870;4.316;2023-10-13T09:58:11;16.25;;;7.32;;
21786;SDS011;11055;50.870;4.316;2023-10-13T10:04:05;21.40;;;7.15;;
21786;SDS011;11055;50.870;4.316;2023-10-13T10:06:50;12.10;;;6.95;;
21786;SDS011;11055;50.870;4.316;2023-10-13T10:09:17;14.90;;;7.20;;
21786;SDS011;11055;50.870;4.316;2023-10-13T10:17:55;16.40;;;7.25;;
21786;SDS011;11055;50.870;4.316;2023-10-13T10:20:35;16.30;;;7.03;;
21786;SDS011;11055;50.870;4.316;2023-10-13T10:23:09;18.15;;;7.55;;
21786;SDS011;11055;50.870;4.316;2023-10-13T10:25:46;14.93;;;7.45;;
21786;SDS011;11055;50.870;4.316;2023-10-13T10:28:16;16.20;;;7.22;;
21786;SDS011;11055;50.870;4.316;2023-10-13T10:30:44;15.23;;;7.00;;
21786;SDS011;11055;50.870;4.316;2023-10-13T10:33:12;20.23;;;7.13;;
21786;SDS011;11055;50.870;4.316;2023-10-13T10:35:44;16.90;;;6.72;;
21786;SDS011;11055;50.870;4.316;2023-10-13T10:38:15;14.20;;;7.43;;
21786;SDS011;11055;50.870;4.316;2023-10-13T10:41:01;12.15;;;6.47;;
21786;SDS011;11055;50.870;4.316;2023-10-13T10:46:14;16.15;;;7.80;;
21786;SDS011;11055;50.870;4.316;2023-10-13T10:48:44;15.10;;;7.45;;
21786;SDS011;11055;50.870;4.316;2023-10-13T10:51:11;18.50;;;7.78;;
21786;SDS011;11055;50.870;4.316;2023-10-13T10:53:48;14.27;;;6.63;;
21786;SDS011;11055;50.870;4.316;2023-10-13T10:56:16;18.00;;;7.55;;
21786;SDS011;11055;50.870;4.316;2023-10-13T10:58:49;19.20;;;7.07;;
21786;SDS011;11055;50.870;4.316;2023-10-13T11:01:29;15.73;;;7.10;;
21786;SDS011;11055;50.870;4.316;2023-10-13T11:04:12;18.45;;;7.15;;
21786;SDS011;11055;50.870;4.316;2023-10-13T11:06:52;19.67;;;7.38;;
21786;SDS011;11055;50.870;4.316;2023-10-13T11:09:24;14.43;;;7.38;;
21786;SDS011;11055;50.870;4.316;2023-10-13T11:14:31;22.38;;;7.65;;
21786;SDS011;11055;50.870;4.316;2023-10-13T11:16:58;19.77;;;6.65;;
21786;SDS011;11055;50.870;4.316;2023-10-13T11:19:45;20.90;;;7.40;;
21786;SDS011;11055;50.870;4.316;2023-10-13T11:24:40;19.77;;;6.57;;
21786;SDS011;11055;50.870;4.316;2023-10-13T11:27:14;20.50;;;7.57;;
21786;SDS011;11055;50.870;4.316;2023-10-13T11:29:46;18.77;;;7.45;;
21786;SDS011;11055;50.870;4.316;2023-10-13T11:32:17;20.50;;;7.13;;
21786;SDS011;11055;50.870;4.316;2023-10-13T11:34:45;18.33;;;7.15;;
21786;SDS011;11055;50.870;4.316;2023-10-13T11:37:16;15.52;;;6.50;;
21786;SDS011;11055;50.870;4.316;2023-10-13T11:40:02;20.27;;;7.25;;
21786;SDS011;11055;50.870;4.316;2023-10-13T11:42:37;19.52;;;7.07;;
21786;SDS011;11055;50.870;4.316;2023-10-13T11:48:00;18.75;;;6.63;;
21786;SDS011;11055;50.870;4.316;2023-10-13T11:50:27;13.65;;;6.65;;
21786;SDS011;11055;50.870;4.316;2023-10-13T11:53:02;18.20;;;6.65;;
21786;SDS011;11055;50.870;4.316;2023-10-13T11:55:33;15.85;;;6.53;;
21786;SDS011;11055;50.870;4.316;2023-10-13T11:57:58;17.25;;;6.50;;
21786;SDS011;11055;50.870;4.316;2023-10-13T12:00:24;17.65;;;6.72;;
21786;SDS011;11055;50.870;4.316;2023-10-13T12:03:08;17.10;;;6.35;;
21786;SDS011;11055;50.870;4.316;2023-10-13T12:05:52;20.50;;;6.43;;
21786;SDS011;11055;50.870;4.316;2023-10-13T12:08:36;19.65;;;6.55;;
21786;SDS011;11055;50.870;4.316;2023-10-13T12:11:14;20.40;;;6.00;;
21786;SDS011;11055;50.870;4.316;2023-10-13T12:13:55;16.70;;;5.90;;
21786;SDS011;11055;50.870;4.316;2023-10-13T12:16:21;19.38;;;6.90;;
21786;SDS011;11055;50.870;4.316;2023-10-13T12:18:48;19.67;;;6.32;;
21786;SDS011;11055;50.870;4.316;2023-10-13T12:21:21;14.40;;;6.70;;
21786;SDS011;11055;50.870;4.316;2023-10-13T12:23:47;16.25;;;6.28;;
21786;SDS011;11055;50.870;4.316;2023-10-13T12:26:15;18.55;;;6.57;;
21786;SDS011;11055;50.870;4.316;2023-10-13T12:28:57;17.88;;;6.28;;
21786;SDS011;11055;50.870;4.316;2023-10-13T12:31:31;18.40;;;5.95;;
21786;SDS011;11055;50.870;4.316;2023-10-13T12:33:57;17.35;;;6.38;;
21786;SDS011;11055;50.870;4.316;2023-10-13T12:36:31;14.77;;;5.60;;
21786;SDS011;11055;50.870;4.316;2023-10-13T12:39:06;12.82;;;5.85;;
21786;SDS011;11055;50.870;4.316;2023-10-13T12:41:32;16.35;;;6.43;;
21786;SDS011;11055;50.870;4.316;2023-10-13T12:44:17;17.08;;;6.07;;
21786;SDS011;11055;50.870;4.316;2023-10-13T12:47:01;16.35;;;6.47;;
21786;SDS011;11055;50.870;4.316;2023-10-13T12:49:45;13.30;;;6.25;;
21786;SDS011;11055;50.870;4.316;2023-10-13T12:52:14;18.27;;;5.90;;
21786;SDS011;11055;50.870;4.316;2023-10-13T12:54:44;12.70;;;6.03;;
21786;SDS011;11055;50.870;4.316;2023-10-13T12:57:29;14.30;;;6.00;;
21786;SDS011;11055;50.870;4.316;2023-10-13T12:59:58;13.25;;;6.05;;
21786;SDS011;11055;50.870;4.316;2023-10-13T13:02:41;13.68;;;5.97;;
21786;SDS011;11055;50.870;4.316;2023-10-13T13:05:07;11.75;;;6.47;;
21786;SDS011;11055;50.870;4.316;2023-10-13T13:07:37;12.20;;;5.85;;
21786;SDS011;11055;50.870;4.316;2023-10-13T13:10:15;12.00;;;5.72;;
21786;SDS011;11055;50.870;4.316;2023-10-13T13:12:42;9.65;;;5.60;;
21786;SDS011;11055;50.870;4.316;2023-10-13T13:15:07;12.15;;;6.25;;
21786;SDS011;11055;50.870;4.316;2023-10-13T13:17:37;11.50;;;5.13;;
21786;SDS011;11055;50.870;4.316;2023-10-13T13:20:07;18.38;;;5.97;;
21786;SDS011;11055;50.870;4.316;2023-10-13T13:22:39;11.07;;;6.07;;
21786;SDS011;11055;50.870;4.316;2023-10-13T13:25:05;13.40;;;6.22;;
21786;SDS011;11055;50.870;4.316;2023-10-13T13:27:33;16.27;;;6.05;;
21786;SDS011;11055;50.870;4.316;2023-10-13T13:29:59;16.23;;;5.43;;
21786;SDS011;11055;50.870;4.316;2023-10-13T13:32:25;12.57;;;5.72;;
21786;SDS011;11055;50.870;4.316;2023-10-13T13:34:53;15.30;;;6.70;;
21786;SDS011;11055;50.870;4.316;2023-10-13T13:37:22;7.70;;;5.07;;
21786;SDS011;11055;50.870;4.316;2023-10-13T13:39:52;16.35;;;6.82;;
21786;SDS011;11055;50.870;4.316;2023-10-13T13:42:18;16.05;;;6.25;;
21786;SDS011;11055;50.870;4.316;2023-10-13T13:44:44;15.98;;;5.88;;
21786;SDS011;11055;50.870;4.316;2023-10-13T13:47:13;12.77;;;6.55;;
21786;SDS011;11055;50.870;4.316;2023-10-13T13:49:39;12.80;;;5.70;;
21786;SDS011;11055;50.870;4.316;2023-10-13T13:52:11;8.57;;;5.40;;
21786;SDS011;11055;50.870;4.316;2023-10-13T13:54:43;8.48;;;5.85;;
21786;SDS011;11055;50.870;4.316;2023-10-13T13:57:09;14.05;;;6.07;;
21786;SDS011;11055;50.870;4.316;2023-10-13T13:59:35;14.15;;;7.00;;
21786;SDS011;11055;50.870;4.316;2023-10-13T14:02:01;10.18;;;5.78;;
21786;SDS011;11055;50.870;4.316;2023-10-13T14:04:45;17.38;;;6.28;;
21786;SDS011;11055;50.870;4.316;2023-10-13T14:07:12;13.90;;;5.80;;
21786;SDS011;11055;50.870;4.316;2023-10-13T14:09:40;26.50;;;6.97;;
21786;SDS011;11055;50.870;4.316;2023-10-13T14:12:09;16.27;;;6.28;;
21786;SDS011;11055;50.870;4.316;2023-10-13T14:14:55;17.33;;;5.90;;
21786;SDS011;11055;50.870;4.316;2023-10-13T14:17:24;11.27;;;5.82;;
21786;SDS011;11055;50.870;4.316;2023-10-13T14:20:01;11.38;;;5.75;;
21786;SDS011;11055;50.870;4.316;2023-10-13T14:22:41;15.90;;;6.68;;
21786;SDS011;11055;50.870;4.316;2023-10-13T14:25:07;15.48;;;6.90;;
21786;SDS011;11055;50.870;4.316;2023-10-13T14:27:39;12.57;;;6.55;;
21786;SDS011;11055;50.870;4.316;2023-10-13T14:30:08;12.27;;;5.85;;
21786;SDS011;11055;50.870;4.316;2023-10-13T14:32:34;13.43;;;6.57;;
21786;SDS011;11055;50.870;4.316;2023-10-13T14:35:06;13.32;;;6.10;;
21786;SDS011;11055;50.870;4.316;2023-10-13T14:37:40;13.98;;;6.32;;
21786;SDS011;11055;50.870;4.316;2023-10-13T14:40:06;11.68;;;6.93;;
21786;SDS011;11055;50.870;4.316;2023-10-13T14:42:37;11.02;;;6.05;;
21786;SDS011;11055;50.870;4.316;2023-10-13T14:45:05;13.98;;;6.72;;
21786;SDS011;11055;50.870;4.316;2023-10-13T14:47:38;14.45;;;6.13;;
21786;SDS011;11055;50.870;4.316;2023-10-13T14:50:05;13.75;;;6.05;;
21786;SDS011;11055;50.870;4.316;2023-10-13T14:52:42;15.13;;;6.10;;
21786;SDS011;11055;50.870;4.316;2023-10-13T14:55:08;12.25;;;6.00;;
21786;SDS011;11055;50.870;4.316;2023-10-13T14:57:44;14.80;;;6.30;;
21786;SDS011;11055;50.870;4.316;2023-10-13T15:00:11;13.27;;;7.18;;
21786;SDS011;11055;50.870;4.316;2023-10-13T15:02:39;20.35;;;7.00;;
21786;SDS011;11055;50.870;4.316;2023-10-13T15:05:08;10.32;;;6.88;;
21786;SDS011;11055;50.870;4.316;2023-10-13T15:07:41;16.27;;;8.20;;
21786;SDS011;11055;50.870;4.316;2023-10-13T15:10:10;10.43;;;5.97;;
21786;SDS011;11055;50.870;4.316;2023-10-13T15:12:40;14.88;;;6.88;;
21786;SDS011;11055;50.870;4.316;2023-10-13T15:15:12;13.18;;;6.70;;
21786;SDS011;11055;50.870;4.316;2023-10-13T15:17:45;12.40;;;7.28;;
21786;SDS011;11055;50.870;4.316;2023-10-13T15:22:44;18.63;;;7.20;;
21786;SDS011;11055;50.870;4.316;2023-10-13T15:25:13;17.17;;;6.68;;
21786;SDS011;11055;50.870;4.316;2023-10-13T15:27:45;10.85;;;6.22;;
21786;SDS011;11055;50.870;4.316;2023-10-13T15:30:27;10.75;;;5.85;;
21786;SDS011;11055;50.870;4.316;2023-10-13T15:33:07;15.43;;;5.85;;
21786;SDS011;11055;50.870;4.316;2023-10-13T15:35:33;12.05;;;6.82;;
21786;SDS011;11055;50.870;4.316;2023-10-13T15:37:59;12.38;;;7.03;;
21786;SDS011;11055;50.870;4.316;2023-10-13T15:40:25;14.75;;;6.03;;
21786;SDS011;11055;50.870;4.316;2023-10-13T15:42:52;15.18;;;6.47;;
21786;SDS011;11055;50.870;4.316;2023-10-13T15:45:24;11.52;;;6.38;;
21786;SDS011;11055;50.870;4.316;2023-10-13T15:47:57;10.18;;;6.07;;
21786;SDS011;11055;50.870;4.316;2023-10-13T15:50:23;14.38;;;5.95;;